createdAt,value
2023-08-30T00:00:43.255Z,97228.00
2023-08-30T00:04:44.280Z,97229.00
2023-08-30T00:08:45.440Z,97227.00
2023-08-30T00:12:46.581Z,97228.00
2023-08-30T00:16:47.627Z,97229.00
2023-08-30T00:20:48.796Z,97227.00
2023-08-30T00:24:49.829Z,97228.00
2023-08-30T00:28:50.849Z,97228.00
2023-08-30T00:32:52.382Z,97219.00
2023-08-30T00:36:53.457Z,97216.00
2023-08-30T00:40:54.872Z,97221.00
2023-08-30T00:44:56.011Z,97222.00
2023-08-30T00:48:57.480Z,97216.00
2023-08-30T00:52:58.627Z,97225.00
2023-08-30T00:57:01.834Z,97214.00
2023-08-30T01:01:04.500Z,97202.00
2023-08-30T01:05:05.990Z,97203.00
2023-08-30T01:09:07.608Z,97205.00
2023-08-30T01:13:12.377Z,97191.00
2023-08-30T01:17:16.545Z,97188.00
2023-08-30T01:21:21.480Z,97186.00
2023-08-30T01:25:52.546Z,97191.00
2023-08-30T01:29:56.992Z,97185.00
2023-08-30T01:33:58.351Z,97178.00
2023-08-30T01:38:01.154Z,97181.00
2023-08-30T01:42:03.597Z,97174.00
2023-08-30T01:46:06.372Z,97174.00
2023-08-30T01:50:08.286Z,97171.00
2023-08-30T01:54:10.266Z,97169.00
2023-08-30T01:58:12.508Z,97232.00
2023-08-30T02:02:13.916Z,97175.00
2023-08-30T02:06:24.653Z,97170.00
2023-08-30T02:10:29.384Z,97169.00
2023-08-30T02:14:32.991Z,97159.00
2023-08-30T02:18:35.411Z,97156.00
2023-08-30T02:22:36.548Z,97160.00
2023-08-30T02:26:38.118Z,97159.00
2023-08-30T02:30:39.404Z,97167.00
2023-08-30T02:34:40.530Z,97162.00
2023-08-30T02:38:41.527Z,97163.00
2023-08-30T02:42:42.543Z,97158.00
2023-08-30T02:46:43.523Z,97151.00
2023-08-30T02:50:44.697Z,97149.00
2023-08-30T02:54:45.753Z,97149.00
2023-08-30T02:58:47.134Z,97154.00
2023-08-30T03:02:49.117Z,97160.00
2023-08-30T03:06:50.656Z,97143.00
2023-08-30T03:10:51.679Z,97145.00
2023-08-30T03:14:52.674Z,97146.00
2023-08-30T03:18:53.927Z,97147.00
2023-08-30T03:23:00.103Z,97152.00
2023-08-30T03:27:01.113Z,97144.00
2023-08-30T03:31:02.429Z,97145.00
2023-08-30T03:35:04.318Z,97140.00
2023-08-30T03:39:05.554Z,97142.00
2023-08-30T03:43:06.708Z,97143.00
2023-08-30T03:47:08.046Z,97150.00
2023-08-30T03:51:09.001Z,97141.00
2023-08-30T03:55:10.160Z,97142.00
2023-08-30T03:59:13.213Z,97137.00
2023-08-30T04:03:15.859Z,97133.00
2023-08-30T04:07:16.906Z,97141.00
2023-08-30T04:11:18.082Z,97137.00
2023-08-30T04:15:19.241Z,97135.00
2023-08-30T04:19:20.416Z,97135.00
2023-08-30T04:23:21.562Z,97137.00
2023-08-30T04:27:22.678Z,97124.00
2023-08-30T04:31:23.924Z,97126.00
2023-08-30T04:35:24.994Z,97132.00
2023-08-30T04:39:26.175Z,97127.00
2023-08-30T04:43:27.377Z,97126.00
2023-08-30T04:47:30.081Z,97120.00
2023-08-30T04:51:31.274Z,97123.00
2023-08-30T04:55:32.341Z,97128.00
2023-08-30T04:59:33.562Z,97124.00
2023-08-30T05:03:35.020Z,97124.00
2023-08-30T05:07:36.194Z,97112.00
2023-08-30T05:11:37.476Z,97116.00
2023-08-30T05:15:38.661Z,97124.00
2023-08-30T05:19:39.718Z,97126.00
2023-08-30T05:23:42.668Z,97085.00
2023-08-30T05:27:43.964Z,97123.00
2023-08-30T05:31:45.154Z,97116.00
2023-08-30T05:35:46.774Z,97120.00
2023-08-30T05:39:47.928Z,97127.00
2023-08-30T05:43:48.994Z,97127.00
2023-08-30T05:47:50.169Z,97134.00
2023-08-30T05:51:51.368Z,97126.00
2023-08-30T05:55:52.382Z,97122.00
2023-08-30T05:59:53.578Z,97122.00
2023-08-30T06:03:55.246Z,97129.00
2023-08-30T06:07:56.458Z,97131.00
2023-08-30T06:11:57.475Z,97123.00
2023-08-30T06:15:58.690Z,97128.00
2023-08-30T06:20:00.064Z,97113.00
2023-08-30T06:24:01.246Z,97101.00
2023-08-30T06:28:03.914Z,97107.00
2023-08-30T06:32:06.208Z,97108.00
2023-08-30T06:36:07.415Z,97105.00
2023-08-30T06:40:09.446Z,97106.00
2023-08-30T06:44:11.046Z,97113.00
2023-08-30T06:48:12.757Z,97103.00
2023-08-30T06:52:14.234Z,97098.00
2023-08-30T06:56:15.327Z,97104.00
2023-08-30T07:00:17.542Z,97098.00
2023-08-30T07:04:19.048Z,97100.00
2023-08-30T07:08:20.539Z,97125.00
2023-08-30T07:12:21.712Z,97108.00
2023-08-30T07:16:22.939Z,97098.00
2023-08-30T07:20:24.067Z,96960.00
2023-08-30T07:24:25.221Z,97096.00
2023-08-30T07:28:26.466Z,97097.00
2023-08-30T07:32:28.187Z,97101.00
2023-08-30T07:36:45.029Z,97100.00
2023-08-30T07:40:33.872Z,97102.00
2023-08-30T07:44:35.066Z,97101.00
2023-08-30T07:48:36.248Z,97092.00
2023-08-30T07:52:51.719Z,97099.00
2023-08-30T07:56:52.919Z,97099.00
2023-08-30T08:00:54.019Z,97101.00
2023-08-30T08:04:55.355Z,97102.00
2023-08-30T08:08:56.598Z,97099.00
2023-08-30T08:12:59.381Z,97107.00
2023-08-30T08:17:00.805Z,97101.00
2023-08-30T08:21:01.895Z,97103.00
2023-08-30T08:25:03.345Z,97112.00
2023-08-30T08:29:04.898Z,97110.00
2023-08-30T08:33:06.097Z,97114.00
2023-08-30T08:37:07.550Z,97108.00
2023-08-30T08:41:12.395Z,97114.00
2023-08-30T08:45:14.568Z,97105.00
2023-08-30T08:49:16.901Z,97110.00
2023-08-30T08:53:18.136Z,97093.00
2023-08-30T08:57:19.864Z,97099.00
2023-08-30T09:01:34.351Z,97105.00
2023-08-30T09:05:24.740Z,97107.00
2023-08-30T09:09:26.403Z,97101.00
2023-08-30T09:13:27.806Z,97092.00
2023-08-30T09:17:39.735Z,97084.00
2023-08-30T09:21:44.681Z,97082.00
2023-08-30T09:25:46.671Z,97087.00
2023-08-30T09:29:48.039Z,97078.00
2023-08-30T09:33:49.251Z,97066.00
2023-08-30T09:37:50.888Z,97069.00
2023-08-30T09:41:53.860Z,97063.00
2023-08-30T09:45:55.038Z,97066.00
2023-08-30T09:49:56.820Z,97064.00
2023-08-30T09:54:05.970Z,97062.00
2023-08-30T09:58:05.479Z,97058.00
2023-08-30T10:02:08.606Z,97058.00
2023-08-30T10:06:09.633Z,97056.00
2023-08-30T10:10:11.348Z,97045.00
2023-08-30T10:14:13.969Z,97044.00
2023-08-30T10:18:18.254Z,97044.00
2023-08-30T10:22:20.931Z,97034.00
2023-08-30T10:26:25.009Z,97032.00
2023-08-30T10:30:26.791Z,97042.00
2023-08-30T10:34:31.632Z,97033.00
2023-08-30T10:38:33.728Z,97033.00
2023-08-30T10:42:35.382Z,97035.00
2023-08-30T10:46:36.891Z,97038.00
2023-08-30T10:50:38.242Z,97042.00
2023-08-30T10:54:46.049Z,97032.00
2023-08-30T10:58:47.098Z,97023.00
2023-08-30T11:02:52.379Z,97042.00
2023-08-30T11:07:13.596Z,97019.00
2023-08-30T11:11:15.448Z,97010.00
2023-08-30T11:15:16.847Z,97004.00
2023-08-30T11:19:18.105Z,97009.00
2023-08-30T11:23:19.418Z,97001.00
2023-08-30T11:27:20.402Z,97002.00
2023-08-30T11:31:28.777Z,97003.00
2023-08-30T11:35:30.823Z,96986.00
2023-08-30T11:39:32.136Z,96998.00
2023-08-30T11:43:33.296Z,96990.00
2023-08-30T11:47:34.812Z,96988.00
2023-08-30T11:51:36.261Z,96982.00
2023-08-30T11:55:38.432Z,96997.00
2023-08-30T11:59:41.544Z,96989.00
2023-08-30T12:03:43.121Z,96986.00
2023-08-30T12:07:46.512Z,96986.00
2023-08-30T12:11:51.054Z,96989.00
2023-08-30T12:15:59.898Z,96991.00
2023-08-30T12:20:01.059Z,96999.00
2023-08-30T12:24:04.245Z,96990.00
2023-08-30T12:28:05.596Z,96989.00
2023-08-30T12:32:08.260Z,96990.00
2023-08-30T12:36:09.432Z,96982.00
2023-08-30T12:40:11.383Z,96974.00
2023-08-30T12:44:12.457Z,96981.00
2023-08-30T12:48:16.055Z,96975.00
2023-08-30T12:52:18.141Z,96975.00
2023-08-30T12:56:19.269Z,96976.00
2023-08-30T13:00:20.481Z,96969.00
2023-08-30T13:04:21.689Z,96959.00
2023-08-30T13:08:22.801Z,96956.00
2023-08-30T13:12:24.764Z,96953.00
2023-08-30T13:16:26.269Z,96953.00
2023-08-30T13:20:27.383Z,96947.00
2023-08-30T13:24:28.677Z,96952.00
2023-08-30T13:28:29.897Z,96951.00
2023-08-30T13:32:31.270Z,96964.00
2023-08-30T13:36:33.361Z,96931.00
2023-08-30T13:40:34.751Z,96952.00
2023-08-30T13:44:38.608Z,96962.00
2023-08-30T13:48:39.837Z,96958.00
2023-08-30T13:52:40.908Z,96977.00
2023-08-30T13:56:42.507Z,96981.00
2023-08-30T14:00:45.198Z,96979.00
2023-08-30T14:04:46.427Z,96972.00
2023-08-30T14:08:47.641Z,96971.00
2023-08-30T14:12:48.818Z,96970.00
2023-08-30T14:16:49.962Z,96960.00
2023-08-30T14:20:51.014Z,96955.00
2023-08-30T14:25:03.368Z,96957.00
2023-08-30T14:28:55.128Z,96955.00
2023-08-30T14:32:56.382Z,96950.00
2023-08-30T14:36:57.461Z,96948.00
2023-08-30T14:41:01.269Z,96947.00
2023-08-30T14:45:03.196Z,96941.00
2023-08-30T14:49:04.590Z,96934.00
2023-08-30T14:53:06.898Z,96942.00
2023-08-30T14:57:07.979Z,96932.00
2023-08-30T15:01:10.506Z,96927.00
2023-08-30T15:05:11.573Z,96932.00
2023-08-30T15:09:14.627Z,96926.00
2023-08-30T15:13:15.691Z,96931.00
2023-08-30T15:17:17.320Z,96928.00
2023-08-30T15:21:18.512Z,96917.00
2023-08-30T15:25:20.234Z,96923.00
2023-08-30T15:29:21.354Z,96912.00
2023-08-30T15:33:24.447Z,96916.00
2023-08-30T15:37:25.564Z,96909.00
2023-08-30T15:41:26.598Z,96918.00
2023-08-30T15:45:27.776Z,96919.00
2023-08-30T15:49:28.864Z,96911.00
2023-08-30T15:53:30.171Z,96933.00
2023-08-30T15:57:31.276Z,96910.00
2023-08-30T16:01:32.464Z,96916.00
2023-08-30T16:05:34.714Z,96919.00
2023-08-30T16:09:35.888Z,96907.00
2023-08-30T16:13:36.939Z,96912.00
2023-08-30T16:17:38.170Z,96898.00
2023-08-30T16:21:39.465Z,96911.00
2023-08-30T16:25:40.538Z,96910.00
2023-08-30T16:29:41.728Z,96922.00
2023-08-30T16:33:42.910Z,96954.00
2023-08-30T16:37:43.970Z,96963.00
2023-08-30T16:41:45.742Z,96970.00
2023-08-30T16:45:47.169Z,96984.00
2023-08-30T16:49:48.369Z,96969.00
2023-08-30T16:53:49.578Z,96979.00
2023-08-30T16:57:50.655Z,96990.00
2023-08-30T17:01:51.826Z,96989.00
2023-08-30T17:05:53.014Z,96988.00
2023-08-30T17:09:54.097Z,96979.00
2023-08-30T17:13:55.182Z,96979.00
2023-08-30T17:17:56.268Z,96967.00
2023-08-30T17:21:57.553Z,96973.00
2023-08-30T17:25:59.748Z,96974.00
2023-08-30T17:30:01.065Z,96977.00
2023-08-30T17:34:02.120Z,96972.00
2023-08-30T17:38:03.626Z,96968.00
2023-08-30T17:42:06.402Z,96976.00
2023-08-30T17:46:07.732Z,96970.00
2023-08-30T17:50:09.625Z,96977.00
2023-08-30T17:54:10.806Z,96980.00
2023-08-30T17:58:12.039Z,96989.00
2023-08-30T18:02:13.245Z,97010.00
2023-08-30T18:06:15.347Z,97020.00
2023-08-30T18:10:16.337Z,97024.00
2023-08-30T18:14:17.375Z,97051.00
2023-08-30T18:18:18.407Z,97060.00
2023-08-30T18:22:19.531Z,97055.00
2023-08-30T18:26:20.636Z,97050.00
2023-08-30T18:30:22.142Z,97055.00
2023-08-30T18:34:23.338Z,97066.00
2023-08-30T18:38:24.479Z,97066.00
2023-08-30T18:42:27.747Z,97066.00
2023-08-30T18:46:28.869Z,97076.00
2023-08-30T18:50:31.020Z,97076.00
2023-08-30T18:54:32.062Z,97079.00
2023-08-30T18:58:33.251Z,97078.00
2023-08-30T19:02:34.354Z,97077.00
2023-08-30T19:06:35.637Z,97091.00
2023-08-30T19:10:36.722Z,97084.00
2023-08-30T19:14:37.734Z,97077.00
2023-08-30T19:18:39.367Z,97081.00
2023-08-30T19:22:41.511Z,96814.00
2023-08-30T19:26:42.570Z,97053.00
2023-08-30T19:30:44.264Z,97057.00
2023-08-30T19:34:47.741Z,97052.00
2023-08-30T19:38:51.280Z,97056.00
2023-08-30T19:42:53.778Z,97067.00
2023-08-30T19:46:56.766Z,97064.00
2023-08-30T19:50:59.169Z,97057.00
2023-08-30T19:55:00.300Z,97069.00
2023-08-30T19:59:01.654Z,97067.00
2023-08-30T20:03:03.539Z,97077.00
2023-08-30T20:07:05.204Z,97097.00
2023-08-30T20:11:07.922Z,97084.00
2023-08-30T20:15:09.627Z,97098.00
2023-08-30T20:19:12.743Z,97113.00
2023-08-30T20:23:14.210Z,97107.00
2023-08-30T20:27:15.430Z,97102.00
2023-08-30T20:31:16.991Z,97106.00
2023-08-30T20:35:18.023Z,97118.00
2023-08-30T20:39:19.015Z,97125.00
2023-08-30T20:43:20.086Z,97128.00
2023-08-30T20:47:21.120Z,97134.00
2023-08-30T20:51:22.628Z,97138.00
2023-08-30T20:55:34.120Z,97138.00
2023-08-30T20:59:26.758Z,97140.00
2023-08-30T21:03:28.131Z,97146.00
2023-08-30T21:07:29.615Z,97139.00
2023-08-30T21:11:30.731Z,97140.00
2023-08-30T21:15:31.960Z,97146.00
2023-08-30T21:19:33.148Z,97152.00
2023-08-30T21:23:34.452Z,97154.00
2023-08-30T21:27:35.602Z,97154.00
2023-08-30T21:31:36.879Z,97156.00
2023-08-30T21:35:39.259Z,97160.00
2023-08-30T21:39:42.162Z,97150.00
2023-08-30T21:43:43.228Z,97146.00
2023-08-30T21:47:44.966Z,97153.00
2023-08-30T21:51:46.217Z,97152.00
2023-08-30T21:55:47.555Z,97154.00
2023-08-30T21:59:48.843Z,97154.00
2023-08-30T22:03:50.035Z,97155.00
2023-08-30T22:07:51.453Z,97148.00
2023-08-30T22:11:52.759Z,97141.00
2023-08-30T22:15:54.029Z,97139.00
2023-08-30T22:19:55.065Z,97140.00
2023-08-30T22:23:59.000Z,97142.00
2023-08-30T22:28:02.151Z,97142.00
2023-08-30T22:32:03.583Z,97140.00
2023-08-30T22:36:05.135Z,97147.00
2023-08-30T22:40:08.705Z,97143.00
2023-08-30T22:44:10.730Z,97144.00
2023-08-30T22:48:11.988Z,97151.00
2023-08-30T22:52:13.166Z,97153.00
2023-08-30T22:56:14.284Z,97144.00
2023-08-30T23:00:15.908Z,97141.00
2023-08-30T23:04:17.227Z,97150.00
2023-08-30T23:08:19.366Z,97147.00
2023-08-30T23:12:21.795Z,97125.00
2023-08-30T23:16:23.218Z,97149.00
2023-08-30T23:20:24.742Z,97141.00
2023-08-30T23:24:25.784Z,97148.00
2023-08-30T23:28:26.954Z,97142.00
2023-08-30T23:32:28.162Z,97155.00
2023-08-30T23:36:29.832Z,97155.00
2023-08-30T23:40:30.927Z,97157.00
2023-08-30T23:44:33.772Z,97146.00
2023-08-30T23:48:34.827Z,97163.00
2023-08-30T23:52:36.062Z,97157.00
2023-08-30T23:56:38.256Z,97163.00
